Edwards, CA (93523)

4:02 PM PST on February 06, 2016 (GMT -0800)
Edwards AFB North Base | | Change Station
CLOSE
Current Station
Airport
Location: Edwards AFB North Base,
Elevation: 2300 ft
Nearby Weather Stations

Elev 2300 ft 34.99 °N, 117.86 °W | Updated 6 minutes ago

Clear
Clear
65 °F
Feels Like 65 °F
N
7
Wind Variable Wind from ESE

Today
High -- | Low -- °F
--% Chance of Precip.
Yesterday
High -- | Low -- °F
Precip. -- in
Pressure 30.31 in
Visibility 10.0 miles
Clouds Clear
Dew Point 20 °F
Humidity 18%
Rainfall 0.00 in
Snow Depth Not available.
6:46 AM 5:25 PM
Waning Crescent, 3% visible
METAR K9L2 062356Z AUTO 11006KT 10SM CLR 18/M07 A3029 RMK AO2 SLP263 T01831067 10189 20083 56017 $
Pressure 30.31 in
Visibility 10.0 miles
Clouds Clear
Dew Point 20 °F
Humidity 18%
Rainfall 0.00 in
Snow Depth Not available.
6:46 AM 5:25 PM
Waning Crescent, 3% visible
METAR K9L2 062356Z AUTO 11006KT 10SM CLR 18/M07 A3029 RMK AO2 SLP263 T01831067 10189 20083 56017 $

10-Day Weather Forecast

Almanac

Astronomy

Feb. 06, 2016 Rise Set
Actual Time
Civil Twilight
Nautical Twilight
Astronomical Twilight
Moon
Length of Visible Light
Length of Day
Tomorrow will be .
, % of the Moon is Illuminated

Today's Extremes

State Highs State Lows

Community

WunderPhotos

Upload Photos

1,891,105 photos uploaded!

WunderBlog® & News

Nearby

Air Quality

  Air Quality AQ Index Pollutant
Not available.

Snow Depth

Station Depth Elevation

Earthquake Activity

City Distance Mag. Time & Date
Minimum magnitude displayed is 2.5.

Coastal Water Temperatures

Place Temperature

Stations

Nearby Weather Stations

Station Location Temp. Windchill Dew Point Humidity Wind Precip. Elev Updated Type
                   

Watches & Warnings

There are currently no watches in effect.